Bill Elmer — WDC6513 — position and weather

sailwx.info

Track history (hours):
 
Tides and Currents Weather Stations Pressure Air Temp Water Temp Dewpoint Dewpoint Depression Visibility Wind Speed Wind Dir Waves Ship Positions

Bill Elmer

Owner: AMERICAN COMMERCIAL BARGE LINE LLC, Jeffersonville, IN. More information available from US FCC via Universal Licensing System and Coast Guard Vessel Documentation Center.

Last reported at 2014-Oct-28 12:32 UTC. Time now 2014-Oct-31 10:54 UTC.
Position N 30°02' W 090°28'.

; draft 2.9 m.

MMSI: 367057350.

Date/timePositionNaut miles runAvg speedWind from/ knotsBaromVisibWave heightAir tempDewpointWater temp
2014-Oct-28 12:32N 30°02' W 090°28'1 0.5
2014-Oct-28 11:32N 30°02' W 090°29'0 0.0
2014-Oct-28 10:33N 30°02' W 090°29'0 0.0
2014-Oct-28 09:09N 30°02' W 090°29'0 0.0
2014-Oct-28 08:32N 30°02' W 090°29'1 0.3
2014-Oct-28 06:19N 30°01' W 090°28'9 0.5
2014-Oct-27 11:22N 29°56' W 090°20'0 0.0
2014-Oct-27 10:33N 29°56' W 090°20'0 0.0
2014-Oct-27 09:31N 29°56' W 090°20'0 0.1
2014-Oct-27 08:09N 29°56' W 090°20'14 0.8
2014-Oct-26 14:31N 30°03' W 090°34'1 0.3
2014-Oct-26 12:33N 30°03' W 090°35'4 3.4
2014-Oct-26 11:15N 30°03' W 090°40'5 7.8
2014-Oct-26 10:33N 30°01' W 090°46'4 4.4
2014-Oct-26 09:32N 30°03' W 090°50'3 1.0
2014-Oct-26 06:05N 30°04' W 090°54'4 0.3
2014-Oct-25 14:20N 30°07' W 090°58'3 1.5
2014-Oct-25 12:30N 30°08' W 091°01'0 0.0
2014-Oct-25 10:19N 30°08' W 091°01'0 0.0
2014-Oct-25 09:29N 30°08' W 091°01'1 1.1
2014-Oct-25 08:32N 30°09' W 090°60'6 6.6
2014-Oct-25 07:33N 30°12' W 091°06'3 2.4
2014-Oct-25 06:22N 30°15' W 091°07'  
Track history (hours):
 
Tides and Currents Weather Stations Pressure Air Temp Water Temp Dewpoint Dewpoint Depression Visibility Wind Speed Wind Dir Waves Ship Positions

Bill Elmer

Owner: AMERICAN COMMERCIAL BARGE LINE LLC, Jeffersonville, IN. More information available from US FCC via Universal Licensing System and Coast Guard Vessel Documentation Center.

Last reported at 2014-Oct-28 12:32 UTC. Time now 2014-Oct-31 10:54 UTC.
Position N 30°02' W 090°28'.

; draft 2.9 m.

MMSI: 367057350.

Date/timePositionNaut miles runAvg speedWind from/ knotsBaromVisibWave heightAir tempDewpointWater temp
2014-Oct-28 12:32N 30°02' W 090°28'1 0.5
2014-Oct-28 11:32N 30°02' W 090°29'0 0.0
2014-Oct-28 10:33N 30°02' W 090°29'0 0.0
2014-Oct-28 09:09N 30°02' W 090°29'0 0.0
2014-Oct-28 08:32N 30°02' W 090°29'1 0.3
2014-Oct-28 06:19N 30°01' W 090°28'9 0.5
2014-Oct-27 11:22N 29°56' W 090°20'0 0.0
2014-Oct-27 10:33N 29°56' W 090°20'0 0.0
2014-Oct-27 09:31N 29°56' W 090°20'0 0.1
2014-Oct-27 08:09N 29°56' W 090°20'14 0.8
2014-Oct-26 14:31N 30°03' W 090°34'1 0.3
2014-Oct-26 12:33N 30°03' W 090°35'4 3.4
2014-Oct-26 11:15N 30°03' W 090°40'5 7.8
2014-Oct-26 10:33N 30°01' W 090°46'4 4.4
2014-Oct-26 09:32N 30°03' W 090°50'3 1.0
2014-Oct-26 06:05N 30°04' W 090°54'4 0.3
2014-Oct-25 14:20N 30°07' W 090°58'3 1.5
2014-Oct-25 12:30N 30°08' W 091°01'0 0.0
2014-Oct-25 10:19N 30°08' W 091°01'0 0.0
2014-Oct-25 09:29N 30°08' W 091°01'1 1.1
2014-Oct-25 08:32N 30°09' W 090°60'6 6.6
2014-Oct-25 07:33N 30°12' W 091°06'3 2.4
2014-Oct-25 06:22N 30°15' W 091°07'  

Dump ship's entire track history